UAL551 KIAH-MWCR
Flight info
| Callsign | UAL551 |
|---|---|
| Flight time | N/A |
| Altitude | 33000 |
| Route | FLYZA5 KELPP A766 KEHLI/N0461F350 UL674 FUNKO UL465 LACET |
| Aircraft | B738/M-SDE2E3FGHIRWXY/LB1 |
Departure
| Time | 2026-05-06 18:02 |
|---|---|
| Airport | George Bush Intercontinental Airport (KIAH) |
Arrival
| Time | N/A |
|---|---|
| Airport | Owen Roberts International Airport (MWCR) |
| Time | Latitude | Longitude | Altitude | Speed | Heading |
|---|---|---|---|---|---|
| 2026-05-06 17:30 | 29.98819 | -95.34330 | 106 ft | 0 kts | 196° |
| 2026-05-06 17:49 | 29.98840 | -95.34322 | 105 ft | 4 kts | 204° |
| 2026-05-06 17:49 | 29.98864 | -95.34308 | 105 ft | 4 kts | 210° |
| 2026-05-06 17:49 | 29.98888 | -95.34295 | 105 ft | 4 kts | 186° |
| 2026-05-06 17:49 | 29.98912 | -95.34296 | 105 ft | 4 kts | 157° |
| 2026-05-06 17:50 | 29.98931 | -95.34314 | 105 ft | 4 kts | 111° |
| 2026-05-06 17:50 | 29.98935 | -95.34343 | 105 ft | 4 kts | 81° |
| 2026-05-06 17:50 | 29.98927 | -95.34369 | 105 ft | 4 kts | 41° |
| 2026-05-06 17:50 | 29.98905 | -95.34377 | 106 ft | 4 kts | 0° |
| 2026-05-06 17:51 | 29.98895 | -95.34377 | 106 ft | 0 kts | 0° |
| 2026-05-06 17:54 | 29.98896 | -95.34377 | 106 ft | 0 kts | 358° |
| 2026-05-06 17:54 | 29.98902 | -95.34378 | 104 ft | 2 kts | 357° |
| 2026-05-06 17:54 | 29.98933 | -95.34360 | 106 ft | 8 kts | 38° |
| 2026-05-06 17:54 | 29.98991 | -95.34340 | 106 ft | 9 kts | 0° |
| 2026-05-06 17:55 | 29.99005 | -95.34340 | 106 ft | 0 kts | 0° |
| 2026-05-06 17:56 | 29.99022 | -95.34340 | 106 ft | 5 kts | 0° |
| 2026-05-06 17:56 | 29.99063 | -95.34346 | 106 ft | 6 kts | 334° |
| 2026-05-06 17:56 | 29.99086 | -95.34390 | 106 ft | 8 kts | 283° |
| 2026-05-06 17:57 | 29.99085 | -95.34464 | 106 ft | 10 kts | 269° |
| 2026-05-06 17:57 | 29.99084 | -95.34541 | 106 ft | 10 kts | 269° |
| 2026-05-06 17:57 | 29.99085 | -95.34617 | 106 ft | 9 kts | 271° |
| 2026-05-06 17:57 | 29.99085 | -95.34698 | 106 ft | 11 kts | 270° |
| 2026-05-06 17:58 | 29.99085 | -95.34789 | 106 ft | 12 kts | 269° |
| 2026-05-06 17:58 | 29.99087 | -95.34894 | 106 ft | 13 kts | 275° |
| 2026-05-06 17:58 | 29.99091 | -95.35000 | 106 ft | 13 kts | 269° |
| 2026-05-06 17:58 | 29.99088 | -95.35102 | 105 ft | 13 kts | 270° |
| 2026-05-06 17:59 | 29.99090 | -95.35202 | 106 ft | 12 kts | 269° |
| 2026-05-06 17:59 | 29.99091 | -95.35299 | 106 ft | 12 kts | 270° |
| 2026-05-06 17:59 | 29.99090 | -95.35403 | 106 ft | 14 kts | 270° |
| 2026-05-06 17:59 | 29.99036 | -95.35484 | 106 ft | 14 kts | 188° |
| 2026-05-06 18:00 | 29.98938 | -95.35489 | 106 ft | 14 kts | 194° |
| 2026-05-06 18:00 | 29.98879 | -95.35567 | 106 ft | 13 kts | 244° |
| 2026-05-06 18:00 | 29.98836 | -95.35659 | 106 ft | 13 kts | 242° |
| 2026-05-06 18:00 | 29.98791 | -95.35744 | 107 ft | 12 kts | 216° |
| 2026-05-06 18:01 | 29.98695 | -95.35731 | 107 ft | 18 kts | 154° |
| 2026-05-06 18:01 | 29.98403 | -95.35551 | 105 ft | 82 kts | 152° |
| 2026-05-06 18:01 | 29.97718 | -95.35131 | 108 ft | 141 kts | 152° |
| 2026-05-06 18:01 | 29.96736 | -95.34553 | 326 ft | 171 kts | 153° |
| 2026-05-06 18:02 | 29.95750 | -95.33867 | 1180 ft | 162 kts | 140° |
| 2026-05-06 18:02 | 29.95031 | -95.32868 | 1889 ft | 166 kts | 132° |
| 2026-05-06 18:02 | 29.94276 | -95.31746 | 2256 ft | 192 kts | 131° |
| 2026-05-06 18:02 | 29.93397 | -95.30448 | 2539 ft | 218 kts | 132° |
| 2026-05-06 18:03 | 29.92386 | -95.29017 | 2918 ft | 237 kts | 133° |
| 2026-05-06 18:03 | 29.91170 | -95.27770 | 3583 ft | 235 kts | 153° |
| 2026-05-06 18:03 | 29.89672 | -95.26815 | 3854 ft | 255 kts | 155° |
| 2026-05-06 18:03 | 29.88075 | -95.25829 | 4459 ft | 264 kts | 155° |
| 2026-05-06 18:04 | 29.86474 | -95.24804 | 5324 ft | 266 kts | 153° |
| 2026-05-06 18:04 | 29.84838 | -95.23760 | 6018 ft | 271 kts | 155° |
| 2026-05-06 18:04 | 29.83181 | -95.22727 | 6815 ft | 272 kts | 155° |
| 2026-05-06 18:04 | 29.81514 | -95.21679 | 7525 ft | 275 kts | 155° |
| 2026-05-06 18:05 | 29.79810 | -95.20600 | 8180 ft | 281 kts | 155° |
| 2026-05-06 18:05 | 29.78154 | -95.19546 | 8876 ft | 284 kts | 155° |
| 2026-05-06 18:05 | 29.76402 | -95.18427 | 9590 ft | 287 kts | 155° |
| 2026-05-06 18:05 | 29.74667 | -95.17317 | 10226 ft | 292 kts | 156° |
| 2026-05-06 18:06 | 29.72825 | -95.16141 | 10449 ft | 314 kts | 155° |
| 2026-05-06 18:06 | 29.70856 | -95.14884 | 10619 ft | 334 kts | 156° |
| 2026-05-06 18:06 | 29.68787 | -95.13565 | 11014 ft | 345 kts | 156° |
| 2026-05-06 18:06 | 29.66672 | -95.12205 | 11565 ft | 349 kts | 156° |
| 2026-05-06 18:07 | 29.64545 | -95.10832 | 12206 ft | 351 kts | 156° |
| 2026-05-06 18:07 | 29.62429 | -95.09468 | 12818 ft | 354 kts | 156° |
| 2026-05-06 18:07 | 29.60269 | -95.08078 | 13412 ft | 357 kts | 156° |
| 2026-05-06 18:07 | 29.58101 | -95.06686 | 13979 ft | 359 kts | 156° |
| 2026-05-06 18:08 | 29.55909 | -95.05280 | 14507 ft | 363 kts | 156° |
| 2026-05-06 18:08 | 29.53690 | -95.03858 | 15036 ft | 366 kts | 156° |
| 2026-05-06 18:08 | 29.51474 | -95.02439 | 15556 ft | 369 kts | 157° |
| 2026-05-06 18:08 | 29.49237 | -95.01007 | 16086 ft | 372 kts | 157° |
| 2026-05-06 18:09 | 29.46963 | -94.99553 | 16653 ft | 375 kts | 157° |
| 2026-05-06 18:09 | 29.44676 | -94.98091 | 17183 ft | 379 kts | 158° |
| 2026-05-06 18:09 | 29.42358 | -94.96610 | 17688 ft | 382 kts | 157° |
| 2026-05-06 18:09 | 29.40025 | -94.95121 | 18201 ft | 385 kts | 157° |
| 2026-05-06 18:10 | 29.37706 | -94.93640 | 18627 ft | 389 kts | 157° |
| 2026-05-06 18:10 | 29.35334 | -94.92126 | 19070 ft | 392 kts | 158° |
| 2026-05-06 18:10 | 29.32938 | -94.90598 | 19522 ft | 395 kts | 158° |
| 2026-05-06 18:10 | 29.30525 | -94.89060 | 19965 ft | 398 kts | 158° |
| 2026-05-06 18:11 | 29.28130 | -94.87426 | 20397 ft | 406 kts | 151° |
| 2026-05-06 18:11 | 29.25929 | -94.85327 | 20830 ft | 418 kts | 142° |
| 2026-05-06 18:11 | 29.23995 | -94.82778 | 21263 ft | 428 kts | 135° |
| 2026-05-06 18:11 | 29.22139 | -94.80095 | 21686 ft | 432 kts | 135° |
| 2026-05-06 18:12 | 29.20284 | -94.77365 | 22086 ft | 436 kts | 134° |
| 2026-05-06 18:12 | 29.18418 | -94.74613 | 22482 ft | 440 kts | 135° |
| 2026-05-06 18:12 | 29.16531 | -94.71845 | 22853 ft | 443 kts | 135° |
| 2026-05-06 18:12 | 29.14623 | -94.69068 | 23268 ft | 445 kts | 135° |
| 2026-05-06 18:13 | 29.12698 | -94.66281 | 23613 ft | 448 kts | 135° |
| 2026-05-06 18:13 | 29.10754 | -94.63479 | 23933 ft | 451 kts | 135° |
| 2026-05-06 18:13 | 29.08800 | -94.60672 | 24254 ft | 453 kts | 135° |
| 2026-05-06 18:13 | 29.06824 | -94.57837 | 24577 ft | 456 kts | 135° |
| 2026-05-06 18:14 | 29.04836 | -94.54990 | 24818 ft | 461 kts | 135° |
| 2026-05-06 18:14 | 29.02825 | -94.52114 | 25070 ft | 465 kts | 135° |
| 2026-05-06 18:14 | 29.00801 | -94.49217 | 25416 ft | 467 kts | 135° |
| 2026-05-06 18:14 | 28.98771 | -94.46312 | 25762 ft | 468 kts | 135° |
| 2026-05-06 18:15 | 28.96730 | -94.43394 | 26082 ft | 470 kts | 135° |
| 2026-05-06 18:15 | 28.94711 | -94.40510 | 26362 ft | 473 kts | 136° |
| 2026-05-06 18:15 | 28.92654 | -94.37574 | 26644 ft | 476 kts | 136° |
| 2026-05-06 18:15 | 28.90577 | -94.34611 | 26929 ft | 478 kts | 136° |
| 2026-05-06 18:16 | 28.88491 | -94.31638 | 27184 ft | 480 kts | 135° |
| 2026-05-06 18:16 | 28.86394 | -94.28651 | 27501 ft | 482 kts | 135° |
| 2026-05-06 18:16 | 28.84298 | -94.25667 | 27785 ft | 484 kts | 135° |
| 2026-05-06 18:16 | 28.82185 | -94.22661 | 28047 ft | 486 kts | 135° |
| 2026-05-06 18:17 | 28.80059 | -94.19640 | 28291 ft | 489 kts | 135° |
| 2026-05-06 18:17 | 28.77949 | -94.16645 | 28545 ft | 491 kts | 135° |
| 2026-05-06 18:17 | 28.75804 | -94.13600 | 28819 ft | 492 kts | 135° |
| 2026-05-06 18:17 | 28.73649 | -94.10543 | 29052 ft | 495 kts | 135° |
| 2026-05-06 18:18 | 28.71487 | -94.07480 | 29301 ft | 497 kts | 135° |
| 2026-05-06 18:18 | 28.69315 | -94.04404 | 29537 ft | 499 kts | 135° |